sensor_id;sensor_type;location;lat;lon;timestamp;temperature;humidity
3705;DHT22;1868;48.918;9.438;2023-03-01T00:01:47;-1.50;97.40
3705;DHT22;1868;48.918;9.438;2023-03-01T00:04:15;-1.40;97.40
3705;DHT22;1868;48.918;9.438;2023-03-01T00:06:43;-1.40;97.40
3705;DHT22;1868;48.918;9.438;2023-03-01T00:09:13;-1.40;97.40
3705;DHT22;1868;48.918;9.438;2023-03-01T00:11:42;-1.40;97.40
3705;DHT22;1868;48.918;9.438;2023-03-01T00:14:10;-1.40;97.40
3705;DHT22;1868;48.918;9.438;2023-03-01T00:16:40;-1.30;97.40
3705;DHT22;1868;48.918;9.438;2023-03-01T00:19:13;-1.40;97.40
3705;DHT22;1868;48.918;9.438;2023-03-01T00:21:43;-1.40;97.40
3705;DHT22;1868;48.918;9.438;2023-03-01T00:24:12;-1.50;97.40
3705;DHT22;1868;48.918;9.438;2023-03-01T00:26:41;-1.40;97.40
3705;DHT22;1868;48.918;9.438;2023-03-01T00:29:09;-1.50;97.40
3705;DHT22;1868;48.918;9.438;2023-03-01T00:31:38;-1.50;97.40
3705;DHT22;1868;48.918;9.438;2023-03-01T00:34:06;-1.50;97.40
3705;DHT22;1868;48.918;9.438;2023-03-01T00:36:37;-1.50;97.40
3705;DHT22;1868;48.918;9.438;2023-03-01T00:39:09;-1.50;97.40
3705;DHT22;1868;48.918;9.438;2023-03-01T00:41:39;-1.60;97.40
3705;DHT22;1868;48.918;9.438;2023-03-01T00:44:08;-1.70;97.40
3705;DHT22;1868;48.918;9.438;2023-03-01T00:46:36;-1.70;97.40
3705;DHT22;1868;48.918;9.438;2023-03-01T00:49:05;-1.70;97.40
3705;DHT22;1868;48.918;9.438;2023-03-01T00:51:33;-1.70;97.40
3705;DHT22;1868;48.918;9.438;2023-03-01T00:54:03;-1.80;97.40
3705;DHT22;1868;48.918;9.438;2023-03-01T00:56:31;-1.80;97.40
3705;DHT22;1868;48.918;9.438;2023-03-01T00:59:01;-1.80;97.40
3705;DHT22;1868;48.918;9.438;2023-03-01T01:01:30;-1.90;97.40
3705;DHT22;1868;48.918;9.438;2023-03-01T01:04:00;-1.90;97.40
3705;DHT22;1868;48.918;9.438;2023-03-01T01:06:32;-2.00;97.40
3705;DHT22;1868;48.918;9.438;2023-03-01T01:09:05;-2.00;97.40
3705;DHT22;1868;48.918;9.438;2023-03-01T01:11:35;-2.10;97.40
3705;DHT22;1868;48.918;9.438;2023-03-01T01:14:04;-2.10;97.40
3705;DHT22;1868;48.918;9.438;2023-03-01T01:16:32;-2.10;97.40
3705;DHT22;1868;48.918;9.438;2023-03-01T01:19:01;-2.10;97.40
3705;DHT22;1868;48.918;9.438;2023-03-01T01:21:30;-2.00;97.40
3705;DHT22;1868;48.918;9.438;2023-03-01T01:23:58;-2.00;97.40
3705;DHT22;1868;48.918;9.438;2023-03-01T01:26:30;-1.90;97.40
3705;DHT22;1868;48.918;9.438;2023-03-01T01:29:01;-1.90;97.40
3705;DHT22;1868;48.918;9.438;2023-03-01T01:31:32;-1.80;97.40
3705;DHT22;1868;48.918;9.438;2023-03-01T01:34:03;-1.70;97.40
3705;DHT22;1868;48.918;9.438;2023-03-01T01:36:33;-1.60;97.40
3705;DHT22;1868;48.918;9.438;2023-03-01T01:39:02;-1.50;97.40
3705;DHT22;1868;48.918;9.438;2023-03-01T01:41:33;-1.40;97.40
3705;DHT22;1868;48.918;9.438;2023-03-01T01:44:26;-1.20;97.40
3705;DHT22;1868;48.918;9.438;2023-03-01T01:46:58;-1.10;97.40
3705;DHT22;1868;48.918;9.438;2023-03-01T01:49:31;-1.10;97.40
3705;DHT22;1868;48.918;9.438;2023-03-01T01:52:07;-1.00;97.40
3705;DHT22;1868;48.918;9.438;2023-03-01T01:54:42;-0.90;97.40
3705;DHT22;1868;48.918;9.438;2023-03-01T01:57:16;-0.80;97.40
3705;DHT22;1868;48.918;9.438;2023-03-01T01:59:50;-0.80;97.40
3705;DHT22;1868;48.918;9.438;2023-03-01T02:02:20;-0.70;97.40
3705;DHT22;1868;48.918;9.438;2023-03-01T02:04:52;-0.60;97.40
3705;DHT22;1868;48.918;9.438;2023-03-01T02:07:26;-0.50;97.40
3705;DHT22;1868;48.918;9.438;2023-03-01T02:09:54;-0.40;97.40
3705;DHT22;1868;48.918;9.438;2023-03-01T02:12:24;-0.40;97.40
3705;DHT22;1868;48.918;9.438;2023-03-01T02:14:54;-0.30;97.40
3705;DHT22;1868;48.918;9.438;2023-03-01T02:17:23;-0.20;97.40
3705;DHT22;1868;48.918;9.438;2023-03-01T02:20:03;-0.20;97.40
3705;DHT22;1868;48.918;9.438;2023-03-01T02:22:38;-0.20;97.40
3705;DHT22;1868;48.918;9.438;2023-03-01T02:25:19;-0.10;97.40
3705;DHT22;1868;48.918;9.438;2023-03-01T02:27:56;0.00;97.40
3705;DHT22;1868;48.918;9.438;2023-03-01T02:30:29;0.00;97.40
3705;DHT22;1868;48.918;9.438;2023-03-01T02:33:00;0.00;97.40
3705;DHT22;1868;48.918;9.438;2023-03-01T02:35:33;0.00;97.40
3705;DHT22;1868;48.918;9.438;2023-03-01T02:38:03;0.00;97.40
3705;DHT22;1868;48.918;9.438;2023-03-01T02:40:36;0.10;97.40
3705;DHT22;1868;48.918;9.438;2023-03-01T02:43:08;0.10;97.40
3705;DHT22;1868;48.918;9.438;2023-03-01T02:45:48;0.20;97.40
3705;DHT22;1868;48.918;9.438;2023-03-01T02:48:17;0.20;97.40
3705;DHT22;1868;48.918;9.438;2023-03-01T02:50:58;0.20;97.40
3705;DHT22;1868;48.918;9.438;2023-03-01T02:53:38;0.20;97.40
3705;DHT22;1868;48.918;9.438;2023-03-01T02:56:10;0.30;97.40
3705;DHT22;1868;48.918;9.438;2023-03-01T02:58:40;0.30;97.40
3705;DHT22;1868;48.918;9.438;2023-03-01T03:01:14;0.30;97.40
3705;DHT22;1868;48.918;9.438;2023-03-01T03:03:43;0.30;97.40
3705;DHT22;1868;48.918;9.438;2023-03-01T03:06:13;0.30;97.40
3705;DHT22;1868;48.918;9.438;2023-03-01T03:08:41;0.20;97.40
3705;DHT22;1868;48.918;9.438;2023-03-01T03:11:10;0.20;97.40
3705;DHT22;1868;48.918;9.438;2023-03-01T03:13:39;0.20;97.40
3705;DHT22;1868;48.918;9.438;2023-03-01T03:16:16;0.20;97.40
3705;DHT22;1868;48.918;9.438;2023-03-01T03:18:45;0.20;97.40
3705;DHT22;1868;48.918;9.438;2023-03-01T03:21:14;0.20;97.40
3705;DHT22;1868;48.918;9.438;2023-03-01T03:23:43;0.30;97.40
3705;DHT22;1868;48.918;9.438;2023-03-01T03:26:11;0.30;97.40
3705;DHT22;1868;48.918;9.438;2023-03-01T03:28:42;0.30;97.40
3705;DHT22;1868;48.918;9.438;2023-03-01T03:31:10;0.30;97.40
3705;DHT22;1868;48.918;9.438;2023-03-01T03:33:40;0.30;97.40
3705;DHT22;1868;48.918;9.438;2023-03-01T03:36:08;0.30;97.40
3705;DHT22;1868;48.918;9.438;2023-03-01T03:38:40;0.30;97.40
3705;DHT22;1868;48.918;9.438;2023-03-01T03:41:08;0.30;97.40
3705;DHT22;1868;48.918;9.438;2023-03-01T03:43:37;0.40;97.40
3705;DHT22;1868;48.918;9.438;2023-03-01T03:46:07;0.40;97.40
3705;DHT22;1868;48.918;9.438;2023-03-01T03:48:36;0.40;97.40
3705;DHT22;1868;48.918;9.438;2023-03-01T03:51:10;0.40;97.40
3705;DHT22;1868;48.918;9.438;2023-03-01T03:53:39;0.40;97.40
3705;DHT22;1868;48.918;9.438;2023-03-01T03:56:07;0.50;97.40
3705;DHT22;1868;48.918;9.438;2023-03-01T03:58:36;0.50;97.40
3705;DHT22;1868;48.918;9.438;2023-03-01T04:01:05;0.50;97.40
3705;DHT22;1868;48.918;9.438;2023-03-01T04:03:34;0.50;97.40
3705;DHT22;1868;48.918;9.438;2023-03-01T04:06:03;0.50;97.40
3705;DHT22;1868;48.918;9.438;2023-03-01T04:08:34;0.50;97.40
3705;DHT22;1868;48.918;9.438;2023-03-01T04:11:03;0.50;97.40
3705;DHT22;1868;48.918;9.438;2023-03-01T04:13:47;0.50;97.40
3705;DHT22;1868;48.918;9.438;2023-03-01T04:16:15;0.60;97.40
3705;DHT22;1868;48.918;9.438;2023-03-01T04:18:44;0.60;97.40
3705;DHT22;1868;48.918;9.438;2023-03-01T04:21:13;0.60;97.40
3705;DHT22;1868;48.918;9.438;2023-03-01T04:23:43;0.60;97.40
3705;DHT22;1868;48.918;9.438;2023-03-01T04:26:11;0.70;97.40
3705;DHT22;1868;48.918;9.438;2023-03-01T04:28:41;0.60;97.40
3705;DHT22;1868;48.918;9.438;2023-03-01T04:31:14;0.60;97.40
3705;DHT22;1868;48.918;9.438;2023-03-01T04:33:46;0.60;97.40
3705;DHT22;1868;48.918;9.438;2023-03-01T04:36:20;0.60;97.40
3705;DHT22;1868;48.918;9.438;2023-03-01T04:38:51;0.60;97.40
3705;DHT22;1868;48.918;9.438;2023-03-01T04:41:21;0.60;97.40
3705;DHT22;1868;48.918;9.438;2023-03-01T04:43:51;0.60;97.40
3705;DHT22;1868;48.918;9.438;2023-03-01T04:46:20;0.60;97.40
3705;DHT22;1868;48.918;9.438;2023-03-01T04:48:49;0.60;97.40
3705;DHT22;1868;48.918;9.438;2023-03-01T04:51:17;0.70;97.40
3705;DHT22;1868;48.918;9.438;2023-03-01T04:53:46;0.60;97.40
3705;DHT22;1868;48.918;9.438;2023-03-01T04:56:16;0.70;97.40
3705;DHT22;1868;48.918;9.438;2023-03-01T04:58:45;0.70;97.40
3705;DHT22;1868;48.918;9.438;2023-03-01T05:01:16;0.70;97.40
3705;DHT22;1868;48.918;9.438;2023-03-01T05:03:47;0.70;97.40
3705;DHT22;1868;48.918;9.438;2023-03-01T05:06:17;0.70;97.40
3705;DHT22;1868;48.918;9.438;2023-03-01T05:08:46;0.60;97.40
3705;DHT22;1868;48.918;9.438;2023-03-01T05:11:16;0.60;97.40
3705;DHT22;1868;48.918;9.438;2023-03-01T05:13:44;0.60;97.40
3705;DHT22;1868;48.918;9.438;2023-03-01T05:16:13;0.60;97.40
3705;DHT22;1868;48.918;9.438;2023-03-01T05:18:41;0.60;97.40
3705;DHT22;1868;48.918;9.438;2023-03-01T05:21:11;0.50;97.40
3705;DHT22;1868;48.918;9.438;2023-03-01T05:23:42;0.60;97.40
3705;DHT22;1868;48.918;9.438;2023-03-01T05:26:11;0.60;97.40
3705;DHT22;1868;48.918;9.438;2023-03-01T05:28:55;0.60;97.40
3705;DHT22;1868;48.918;9.438;2023-03-01T05:31:26;0.60;97.40
3705;DHT22;1868;48.918;9.438;2023-03-01T05:33:54;0.60;97.40
3705;DHT22;1868;48.918;9.438;2023-03-01T05:36:23;0.60;97.40
3705;DHT22;1868;48.918;9.438;2023-03-01T05:38:51;0.70;97.40
3705;DHT22;1868;48.918;9.438;2023-03-01T05:41:20;0.70;97.40
3705;DHT22;1868;48.918;9.438;2023-03-01T05:43:48;0.70;97.40
3705;DHT22;1868;48.918;9.438;2023-03-01T05:46:18;0.70;97.40
3705;DHT22;1868;48.918;9.438;2023-03-01T05:48:47;0.70;97.40
3705;DHT22;1868;48.918;9.438;2023-03-01T05:51:15;0.70;97.40
3705;DHT22;1868;48.918;9.438;2023-03-01T05:53:44;0.70;97.40
3705;DHT22;1868;48.918;9.438;2023-03-01T05:56:12;0.70;97.40
3705;DHT22;1868;48.918;9.438;2023-03-01T05:58:40;0.70;97.40
3705;DHT22;1868;48.918;9.438;2023-03-01T06:01:11;0.80;97.40
3705;DHT22;1868;48.918;9.438;2023-03-01T06:03:42;0.80;97.40
3705;DHT22;1868;48.918;9.438;2023-03-01T06:06:10;0.70;97.40
3705;DHT22;1868;48.918;9.438;2023-03-01T06:08:38;0.70;97.40
3705;DHT22;1868;48.918;9.438;2023-03-01T06:11:06;0.60;97.40
3705;DHT22;1868;48.918;9.438;2023-03-01T06:13:35;0.50;97.40
3705;DHT22;1868;48.918;9.438;2023-03-01T06:16:05;0.50;97.40
3705;DHT22;1868;48.918;9.438;2023-03-01T06:18:34;0.40;97.40
3705;DHT22;1868;48.918;9.438;2023-03-01T06:21:05;0.40;97.40
3705;DHT22;1868;48.918;9.438;2023-03-01T06:23:35;0.40;97.40
3705;DHT22;1868;48.918;9.438;2023-03-01T06:26:05;0.40;97.40
3705;DHT22;1868;48.918;9.438;2023-03-01T06:28:35;0.40;97.40
3705;DHT22;1868;48.918;9.438;2023-03-01T06:31:03;0.40;97.40
3705;DHT22;1868;48.918;9.438;2023-03-01T06:33:35;0.50;97.40
3705;DHT22;1868;48.918;9.438;2023-03-01T06:36:06;0.60;97.40
3705;DHT22;1868;48.918;9.438;2023-03-01T06:38:36;0.70;97.40
3705;DHT22;1868;48.918;9.438;2023-03-01T06:41:04;0.70;97.40
3705;DHT22;1868;48.918;9.438;2023-03-01T06:43:33;0.70;97.40
3705;DHT22;1868;48.918;9.438;2023-03-01T06:46:04;0.80;97.40
3705;DHT22;1868;48.918;9.438;2023-03-01T06:48:33;0.90;97.40
3705;DHT22;1868;48.918;9.438;2023-03-01T06:51:04;1.10;97.40
3705;DHT22;1868;48.918;9.438;2023-03-01T06:53:33;1.30;97.40
3705;DHT22;1868;48.918;9.438;2023-03-01T06:56:02;1.60;97.40
3705;DHT22;1868;48.918;9.438;2023-03-01T06:58:31;1.80;97.40
3705;DHT22;1868;48.918;9.438;2023-03-01T07:00:59;2.00;97.40
3705;DHT22;1868;48.918;9.438;2023-03-01T07:03:32;2.40;97.40
3705;DHT22;1868;48.918;9.438;2023-03-01T07:06:00;2.80;97.40
3705;DHT22;1868;48.918;9.438;2023-03-01T07:08:30;3.10;97.40
3705;DHT22;1868;48.918;9.438;2023-03-01T07:10:59;3.40;97.40
3705;DHT22;1868;48.918;9.438;2023-03-01T07:13:30;3.70;97.20
3705;DHT22;1868;48.918;9.438;2023-03-01T07:16:01;4.00;96.30
3705;DHT22;1868;48.918;9.438;2023-03-01T07:18:29;4.30;95.30
3705;DHT22;1868;48.918;9.438;2023-03-01T07:20:57;4.60;94.30
3705;DHT22;1868;48.918;9.438;2023-03-01T07:23:26;4.90;93.30
3705;DHT22;1868;48.918;9.438;2023-03-01T07:25:56;5.40;92.40
3705;DHT22;1868;48.918;9.438;2023-03-01T07:28:24;5.80;91.30
3705;DHT22;1868;48.918;9.438;2023-03-01T07:31:00;6.20;90.80
3705;DHT22;1868;48.918;9.438;2023-03-01T07:33:28;6.50;88.20
3705;DHT22;1868;48.918;9.438;2023-03-01T07:35:57;6.80;85.80
3705;DHT22;1868;48.918;9.438;2023-03-01T07:38:27;7.00;85.30
3705;DHT22;1868;48.918;9.438;2023-03-01T07:40:59;7.20;82.70
3705;DHT22;1868;48.918;9.438;2023-03-01T07:43:28;7.50;81.90
3705;DHT22;1868;48.918;9.438;2023-03-01T07:45:59;7.70;80.00
3705;DHT22;1868;48.918;9.438;2023-03-01T07:48:29;8.00;78.90
3705;DHT22;1868;48.918;9.438;2023-03-01T07:50:58;8.40;77.40
3705;DHT22;1868;48.918;9.438;2023-03-01T07:53:27;8.50;75.80
3705;DHT22;1868;48.918;9.438;2023-03-01T07:56:02;8.80;74.50
3705;DHT22;1868;48.918;9.438;2023-03-01T07:58:34;8.90;73.00
3705;DHT22;1868;48.918;9.438;2023-03-01T08:01:03;9.10;72.60
3705;DHT22;1868;48.918;9.438;2023-03-01T08:03:32;9.30;70.50
3705;DHT22;1868;48.918;9.438;2023-03-01T08:06:01;9.70;71.50
3705;DHT22;1868;48.918;9.438;2023-03-01T08:08:30;10.20;72.60
3705;DHT22;1868;48.918;9.438;2023-03-01T08:11:04;10.60;67.20
3705;DHT22;1868;48.918;9.438;2023-03-01T08:13:33;11.10;66.80
3705;DHT22;1868;48.918;9.438;2023-03-01T08:16:02;11.30;63.30
3705;DHT22;1868;48.918;9.438;2023-03-01T08:18:31;11.70;64.20
3705;DHT22;1868;48.918;9.438;2023-03-01T08:21:02;12.30;62.50
3705;DHT22;1868;48.918;9.438;2023-03-01T08:23:31;12.50;58.30
3705;DHT22;1868;48.918;9.438;2023-03-01T08:26:10;12.70;58.90
3705;DHT22;1868;48.918;9.438;2023-03-01T08:28:39;12.50;56.30
3705;DHT22;1868;48.918;9.438;2023-03-01T08:31:18;12.40;56.90
3705;DHT22;1868;48.918;9.438;2023-03-01T08:33:48;12.40;57.80
3705;DHT22;1868;48.918;9.438;2023-03-01T08:36:22;12.40;57.20
3705;DHT22;1868;48.918;9.438;2023-03-01T08:38:50;12.60;55.80
3705;DHT22;1868;48.918;9.438;2023-03-01T08:41:20;12.50;56.30
3705;DHT22;1868;48.918;9.438;2023-03-01T08:43:49;12.60;55.50
3705;DHT22;1868;48.918;9.438;2023-03-01T08:46:19;12.80;54.90
3705;DHT22;1868;48.918;9.438;2023-03-01T08:48:47;13.10;56.40
3705;DHT22;1868;48.918;9.438;2023-03-01T08:51:17;13.70;54.60
3705;DHT22;1868;48.918;9.438;2023-03-01T08:53:46;13.90;52.00
3705;DHT22;1868;48.918;9.438;2023-03-01T08:56:16;14.10;52.50
3705;DHT22;1868;48.918;9.438;2023-03-01T08:58:48;14.00;51.60
3705;DHT22;1868;48.918;9.438;2023-03-01T09:01:18;14.10;51.40
3705;DHT22;1868;48.918;9.438;2023-03-01T09:03:47;14.50;50.70
3705;DHT22;1868;48.918;9.438;2023-03-01T09:06:15;14.50;50.20
3705;DHT22;1868;48.918;9.438;2023-03-01T09:08:45;14.80;50.30
3705;DHT22;1868;48.918;9.438;2023-03-01T09:11:16;15.10;49.00
3705;DHT22;1868;48.918;9.438;2023-03-01T09:13:48;15.10;49.00
3705;DHT22;1868;48.918;9.438;2023-03-01T09:16:18;15.30;49.30
3705;DHT22;1868;48.918;9.438;2023-03-01T09:18:49;15.60;49.10
3705;DHT22;1868;48.918;9.438;2023-03-01T09:21:20;16.00;47.50
3705;DHT22;1868;48.918;9.438;2023-03-01T09:24:08;16.40;45.60
3705;DHT22;1868;48.918;9.438;2023-03-01T09:27:15;16.50;45.60
3705;DHT22;1868;48.918;9.438;2023-03-01T09:29:47;17.10;46.40
3705;DHT22;1868;48.918;9.438;2023-03-01T09:32:39;17.20;44.00
3705;DHT22;1868;48.918;9.438;2023-03-01T09:35:28;17.50;42.70
3705;DHT22;1868;48.918;9.438;2023-03-01T09:38:00;17.30;43.30
3705;DHT22;1868;48.918;9.438;2023-03-01T09:40:28;17.50;43.30
3705;DHT22;1868;48.918;9.438;2023-03-01T09:43:03;17.40;41.70
3705;DHT22;1868;48.918;9.438;2023-03-01T09:45:41;17.40;41.80
3705;DHT22;1868;48.918;9.438;2023-03-01T09:48:15;17.30;42.00
3705;DHT22;1868;48.918;9.438;2023-03-01T09:50:45;17.00;41.50
3705;DHT22;1868;48.918;9.438;2023-03-01T09:53:16;17.70;42.30
3705;DHT22;1868;48.918;9.438;2023-03-01T09:55:50;17.90;40.80
3705;DHT22;1868;48.918;9.438;2023-03-01T09:58:31;18.60;40.30
3705;DHT22;1868;48.918;9.438;2023-03-01T10:01:23;18.80;39.20
3705;DHT22;1868;48.918;9.438;2023-03-01T10:07:21;18.60;37.30
3705;DHT22;1868;48.918;9.438;2023-03-01T10:09:55;18.00;35.70
3705;DHT22;1868;48.918;9.438;2023-03-01T10:12:27;18.00;37.90
3705;DHT22;1868;48.918;9.438;2023-03-01T10:15:04;18.10;38.60
3705;DHT22;1868;48.918;9.438;2023-03-01T10:17:39;18.20;37.90
3705;DHT22;1868;48.918;9.438;2023-03-01T10:20:17;18.10;37.40
3705;DHT22;1868;48.918;9.438;2023-03-01T10:22:47;18.00;38.50
3705;DHT22;1868;48.918;9.438;2023-03-01T10:25:27;18.30;37.90
3705;DHT22;1868;48.918;9.438;2023-03-01T10:28:10;18.20;37.90
3705;DHT22;1868;48.918;9.438;2023-03-01T10:30:44;17.70;38.00
3705;DHT22;1868;48.918;9.438;2023-03-01T10:33:17;17.40;39.50
3705;DHT22;1868;48.918;9.438;2023-03-01T10:35:49;18.40;40.10
3705;DHT22;1868;48.918;9.438;2023-03-01T10:38:18;18.60;35.70
3705;DHT22;1868;48.918;9.438;2023-03-01T10:40:53;18.20;37.10
3705;DHT22;1868;48.918;9.438;2023-03-01T10:43:24;17.90;38.20
3705;DHT22;1868;48.918;9.438;2023-03-01T10:45:53;16.90;39.20
3705;DHT22;1868;48.918;9.438;2023-03-01T10:48:24;17.10;40.10
3705;DHT22;1868;48.918;9.438;2023-03-01T10:51:05;18.00;39.50
3705;DHT22;1868;48.918;9.438;2023-03-01T10:53:37;18.50;37.60
3705;DHT22;1868;48.918;9.438;2023-03-01T10:56:09;18.60;37.90
3705;DHT22;1868;48.918;9.438;2023-03-01T10:58:56;18.80;36.00
3705;DHT22;1868;48.918;9.438;2023-03-01T11:01:27;18.40;35.90
3705;DHT22;1868;48.918;9.438;2023-03-01T11:04:11;18.50;38.30
3705;DHT22;1868;48.918;9.438;2023-03-01T11:06:41;19.60;36.90
3705;DHT22;1868;48.918;9.438;2023-03-01T11:09:17;20.10;35.90
3705;DHT22;1868;48.918;9.438;2023-03-01T11:11:52;20.60;35.40
3705;DHT22;1868;48.918;9.438;2023-03-01T11:14:22;20.70;33.60
3705;DHT22;1868;48.918;9.438;2023-03-01T11:17:01;21.10;33.10
3705;DHT22;1868;48.918;9.438;2023-03-01T11:19:32;21.50;33.00
3705;DHT22;1868;48.918;9.438;2023-03-01T11:22:03;21.10;31.20
3705;DHT22;1868;48.918;9.438;2023-03-01T11:24:38;20.90;32.70
3705;DHT22;1868;48.918;9.438;2023-03-01T11:27:16;20.80;33.00
3705;DHT22;1868;48.918;9.438;2023-03-01T11:29:48;20.60;32.70
3705;DHT22;1868;48.918;9.438;2023-03-01T11:32:21;20.80;32.10
3705;DHT22;1868;48.918;9.438;2023-03-01T11:34:57;20.90;31.80
3705;DHT22;1868;48.918;9.438;2023-03-01T11:37:33;20.90;32.40
3705;DHT22;1868;48.918;9.438;2023-03-01T11:40:13;21.10;32.50
3705;DHT22;1868;48.918;9.438;2023-03-01T11:43:01;21.50;31.50
3705;DHT22;1868;48.918;9.438;2023-03-01T11:45:43;21.30;31.90
3705;DHT22;1868;48.918;9.438;2023-03-01T11:48:31;21.60;31.00
3705;DHT22;1868;48.918;9.438;2023-03-01T11:51:23;21.80;30.20
3705;DHT22;1868;48.918;9.438;2023-03-01T11:54:06;22.00;30.90
3705;DHT22;1868;48.918;9.438;2023-03-01T11:56:45;22.00;29.70
3705;DHT22;1868;48.918;9.438;2023-03-01T11:59:52;22.20;30.20
3705;DHT22;1868;48.918;9.438;2023-03-01T12:06:16;21.90;30.40
3705;DHT22;1868;48.918;9.438;2023-03-01T12:09:02;21.80;29.80
3705;DHT22;1868;48.918;9.438;2023-03-01T12:11:54;21.60;29.40
3705;DHT22;1868;48.918;9.438;2023-03-01T12:14:44;21.40;30.90
3705;DHT22;1868;48.918;9.438;2023-03-01T12:17:44;22.20;30.40
3705;DHT22;1868;48.918;9.438;2023-03-01T12:20:31;21.90;29.70
3705;DHT22;1868;48.918;9.438;2023-03-01T12:23:20;21.70;29.80
3705;DHT22;1868;48.918;9.438;2023-03-01T12:26:05;22.10;30.20
3705;DHT22;1868;48.918;9.438;2023-03-01T12:28:51;22.30;29.10
3705;DHT22;1868;48.918;9.438;2023-03-01T12:34:38;21.30;29.50
3705;DHT22;1868;48.918;9.438;2023-03-01T12:37:25;21.80;30.90
3705;DHT22;1868;48.918;9.438;2023-03-01T12:40:15;21.80;30.60
3705;DHT22;1868;48.918;9.438;2023-03-01T12:42:58;21.50;30.40
3705;DHT22;1868;48.918;9.438;2023-03-01T12:45:52;21.80;30.20
3705;DHT22;1868;48.918;9.438;2023-03-01T12:48:44;22.00;30.40
3705;DHT22;1868;48.918;9.438;2023-03-01T12:51:22;21.70;30.90
3705;DHT22;1868;48.918;9.438;2023-03-01T12:53:54;21.20;30.40
3705;DHT22;1868;48.918;9.438;2023-03-01T12:56:30;21.50;31.80
3705;DHT22;1868;48.918;9.438;2023-03-01T12:59:11;21.50;31.00
3705;DHT22;1868;48.918;9.438;2023-03-01T13:01:51;21.90;30.70
3705;DHT22;1868;48.918;9.438;2023-03-01T13:04:45;21.40;30.90
3705;DHT22;1868;48.918;9.438;2023-03-01T13:07:30;21.20;31.80
3705;DHT22;1868;48.918;9.438;2023-03-01T13:10:14;21.40;31.00
3705;DHT22;1868;48.918;9.438;2023-03-01T13:13:01;21.50;31.60
3705;DHT22;1868;48.918;9.438;2023-03-01T13:15:37;21.30;32.20
3705;DHT22;1868;48.918;9.438;2023-03-01T13:18:29;21.10;31.60
3705;DHT22;1868;48.918;9.438;2023-03-01T13:21:01;20.90;32.40
3705;DHT22;1868;48.918;9.438;2023-03-01T13:23:37;21.00;32.50
3705;DHT22;1868;48.918;9.438;2023-03-01T13:26:09;21.20;32.80
3705;DHT22;1868;48.918;9.438;2023-03-01T13:28:57;20.80;32.80
3705;DHT22;1868;48.918;9.438;2023-03-01T13:31:56;20.20;33.10
3705;DHT22;1868;48.918;9.438;2023-03-01T13:34:53;20.10;34.80
3705;DHT22;1868;48.918;9.438;2023-03-01T13:37:34;19.90;35.10
3705;DHT22;1868;48.918;9.438;2023-03-01T13:43:30;19.70;35.10
3705;DHT22;1868;48.918;9.438;2023-03-01T13:46:00;19.20;35.70
3705;DHT22;1868;48.918;9.438;2023-03-01T13:48:31;19.10;37.40
3705;DHT22;1868;48.918;9.438;2023-03-01T13:51:03;19.20;37.10
3705;DHT22;1868;48.918;9.438;2023-03-01T13:53:35;19.30;37.60
3705;DHT22;1868;48.918;9.438;2023-03-01T13:56:10;19.50;36.80
3705;DHT22;1868;48.918;9.438;2023-03-01T13:58:51;19.30;36.50
3705;DHT22;1868;48.918;9.438;2023-03-01T14:01:24;19.30;36.90
3705;DHT22;1868;48.918;9.438;2023-03-01T14:03:56;19.20;36.90
3705;DHT22;1868;48.918;9.438;2023-03-01T14:06:26;19.40;36.80
3705;DHT22;1868;48.918;9.438;2023-03-01T14:09:08;19.00;36.80
3705;DHT22;1868;48.918;9.438;2023-03-01T14:12:02;18.80;38.20
3705;DHT22;1868;48.918;9.438;2023-03-01T14:14:40;18.60;38.60
3705;DHT22;1868;48.918;9.438;2023-03-01T14:17:44;18.40;38.60
3705;DHT22;1868;48.918;9.438;2023-03-01T14:20:20;18.20;39.10
3705;DHT22;1868;48.918;9.438;2023-03-01T14:22:52;18.00;40.00
3705;DHT22;1868;48.918;9.438;2023-03-01T14:25:25;17.90;39.70
3705;DHT22;1868;48.918;9.438;2023-03-01T14:27:59;18.00;40.30
3705;DHT22;1868;48.918;9.438;2023-03-01T14:30:34;17.70;40.50
3705;DHT22;1868;48.918;9.438;2023-03-01T14:33:17;17.40;41.10
3705;DHT22;1868;48.918;9.438;2023-03-01T14:35:56;17.30;41.80
3705;DHT22;1868;48.918;9.438;2023-03-01T14:38:32;17.20;41.70
3705;DHT22;1868;48.918;9.438;2023-03-01T14:41:03;17.20;42.40
3705;DHT22;1868;48.918;9.438;2023-03-01T14:43:35;17.00;42.70
3705;DHT22;1868;48.918;9.438;2023-03-01T14:46:18;17.10;43.30
3705;DHT22;1868;48.918;9.438;2023-03-01T14:48:49;17.20;43.30
3705;DHT22;1868;48.918;9.438;2023-03-01T14:51:18;16.90;43.00
3705;DHT22;1868;48.918;9.438;2023-03-01T14:53:47;17.00;43.30
3705;DHT22;1868;48.918;9.438;2023-03-01T14:56:17;16.90;44.00
3705;DHT22;1868;48.918;9.438;2023-03-01T14:58:51;16.80;43.80
3705;DHT22;1868;48.918;9.438;2023-03-01T15:01:21;16.40;43.20
3705;DHT22;1868;48.918;9.438;2023-03-01T15:03:51;16.00;44.10
3705;DHT22;1868;48.918;9.438;2023-03-01T15:06:22;15.70;45.30
3705;DHT22;1868;48.918;9.438;2023-03-01T15:08:52;15.60;45.20
3705;DHT22;1868;48.918;9.438;2023-03-01T15:11:27;15.50;45.50
3705;DHT22;1868;48.918;9.438;2023-03-01T15:17:31;15.10;46.70
3705;DHT22;1868;48.918;9.438;2023-03-01T15:20:04;15.00;47.30
3705;DHT22;1868;48.918;9.438;2023-03-01T15:22:36;14.90;48.40
3705;DHT22;1868;48.918;9.438;2023-03-01T15:25:33;14.90;47.50
3705;DHT22;1868;48.918;9.438;2023-03-01T15:31:29;14.60;48.10
3705;DHT22;1868;48.918;9.438;2023-03-01T15:34:10;14.30;49.10
3705;DHT22;1868;48.918;9.438;2023-03-01T15:36:47;14.10;50.20
3705;DHT22;1868;48.918;9.438;2023-03-01T15:39:33;14.00;49.90
3705;DHT22;1868;48.918;9.438;2023-03-01T15:42:12;13.90;50.00
3705;DHT22;1868;48.918;9.438;2023-03-01T15:44:44;13.60;50.20
3705;DHT22;1868;48.918;9.438;2023-03-01T15:47:26;13.50;50.80
3705;DHT22;1868;48.918;9.438;2023-03-01T15:52:53;13.20;52.30
3705;DHT22;1868;48.918;9.438;2023-03-01T15:55:24;13.10;53.20
3705;DHT22;1868;48.918;9.438;2023-03-01T15:57:59;12.90;53.50
3705;DHT22;1868;48.918;9.438;2023-03-01T16:00:38;12.80;54.50
3705;DHT22;1868;48.918;9.438;2023-03-01T16:03:26;12.50;54.60
3705;DHT22;1868;48.918;9.438;2023-03-01T16:05:54;12.30;54.50
3705;DHT22;1868;48.918;9.438;2023-03-01T16:08:23;12.00;54.90
3705;DHT22;1868;48.918;9.438;2023-03-01T16:11:03;11.80;55.50
3705;DHT22;1868;48.918;9.438;2023-03-01T16:17:27;11.40;57.00
3705;DHT22;1868;48.918;9.438;2023-03-01T16:24:58;10.50;59.90
3705;DHT22;1868;48.918;9.438;2023-03-01T16:27:38;9.90;62.20
3705;DHT22;1868;48.918;9.438;2023-03-01T16:30:20;9.70;63.70
3705;DHT22;1868;48.918;9.438;2023-03-01T16:33:33;9.50;65.00
3705;DHT22;1868;48.918;9.438;2023-03-01T16:36:27;9.20;66.80
3705;DHT22;1868;48.918;9.438;2023-03-01T16:39:02;9.00;66.10
3705;DHT22;1868;48.918;9.438;2023-03-01T16:41:34;8.90;66.40
3705;DHT22;1868;48.918;9.438;2023-03-01T16:44:02;8.70;68.30
3705;DHT22;1868;48.918;9.438;2023-03-01T16:46:31;8.50;69.20
3705;DHT22;1868;48.918;9.438;2023-03-01T16:49:02;8.30;69.80
3705;DHT22;1868;48.918;9.438;2023-03-01T16:51:34;8.10;70.70
3705;DHT22;1868;48.918;9.438;2023-03-01T16:54:03;8.10;70.50
3705;DHT22;1868;48.918;9.438;2023-03-01T16:56:36;7.90;73.20
3705;DHT22;1868;48.918;9.438;2023-03-01T16:59:09;7.70;72.60
3705;DHT22;1868;48.918;9.438;2023-03-01T17:01:39;7.70;73.30
3705;DHT22;1868;48.918;9.438;2023-03-01T17:04:10;7.50;74.50
3705;DHT22;1868;48.918;9.438;2023-03-01T17:06:43;7.50;74.10
3705;DHT22;1868;48.918;9.438;2023-03-01T17:09:13;7.40;74.60
3705;DHT22;1868;48.918;9.438;2023-03-01T17:11:43;7.30;75.40
3705;DHT22;1868;48.918;9.438;2023-03-01T17:14:11;7.20;76.10
3705;DHT22;1868;48.918;9.438;2023-03-01T17:16:42;7.10;76.90
3705;DHT22;1868;48.918;9.438;2023-03-01T17:19:12;7.00;76.70
3705;DHT22;1868;48.918;9.438;2023-03-01T17:21:45;6.90;78.90